Race Coverage Navigation

TS # 44 / Athens, OH  2019

 


TS STATS
TS Distance 59.2 
Total Distance 2588.04 
Miles To Go 453.97 
TS Climbing 2566 
Total Climbing
TS  Elevation
TS  Net Elevation 4092 
Map Filename Open Map 
Directions Filename  
Latitude 39.34 
Longitude -82.07 
Google Map  TimeStation Map 


TS Arrival Data
Arr Ord  #/Name Arrival DT TS Dst Avg This TS Avg Overall
 1 377 - Christoph Strasser  06/18/2019 13:20 59.2  15.18  15.72 
 2 279 - Marko Baloh  06/19/2019 17:03 59.2  9.15  13.45 
 3 609 - Jakob Olsen  06/19/2019 19:01 59.2  13.82  13.29 
 4 T411 - team alpha - tischlerei groemmer  06/20/2019 9:46 59.2  23.22  22.62 
 5 617 - SOLO.kiwi (Craig Harper)  06/20/2019 10:09 59.2  17.16  12.33 
 6 T800 - Backstedt Racing Project 14  06/20/2019 10:21 59.2  22.2  22.53 
 7 367 - Daniela Genovesi  06/20/2019 14:21 59.2  13.77  12.08 
 8 329 - Peter Oyler  06/20/2019 15:50 59.2  7.64  12.02 
 9 416 - Leah Goldstein  06/20/2019 16:12 59.2  13.3  11.98 
 10 T404 - Gentlemen of speed  06/20/2019 16:58 59.2  22.2  21.26 
 11 623 - Ultra Paka Racing Team (Daniel Polman)  06/20/2019 17:15 59.2  14.04  11.92 
 12 622 - Thomas Odom-Team Kyle Pease Foundation  06/20/2019 18:56 59.2  9.92  11.83 
 13 T401 - Data Techniques powered by Networks Centre  06/20/2019 19:23 59.2  14.74  20.84 
 14 T805 - Team Oceanside  06/20/2019 21:37 59.2  21.79  20.53 
 15 611 - Marcelo Soares " MIXIRICA "  06/20/2019 22:06 59.2  9.23  11.67 
 16 T807 - Team ZOE International  06/20/2019 22:25 59.2  19.52  20.41 
 17 615 - Philipp Amhof  06/20/2019 22:57 59.2  15.24  11.62 
 18 612 - Markus K. Brandl  06/20/2019 23:28 59.2  12.04  11.6 
 19 T407 - Julian Becker   06/20/2019 23:43 59.2  20.07  20.15 
 20 T201 - EAT WELL  06/21/2019 0:16 59.2  19.84  20.02 
 21 T802 - Scorchers  06/21/2019 1:07 59.2  18.5  19.97 
 22 T416 - Team Rotary Raams Polio  06/21/2019 3:43 59.2  20.3  19.56 
 23 T804 - Team FSHD Skyland Trail  06/21/2019 3:49 59.2  18.89  19.57 
 24 T408 - Radeln-fuer-Kinder (Cycling-for-Kids)  06/21/2019 5:16 59.2  17.67  19.32 
 25 603 - Alan Bradley  06/21/2019 5:26 59.2  7.22  11.3 
 26 T400 - Cantastic4  06/21/2019 7:46 59.2  19.2  18.95 
 27 510 - John C. Tarlton  06/21/2019 7:58 59.2  9.7  11.18 
 28 T808 - Antonia's Friends 2019  06/21/2019 8:00 59.2  20.65  18.98 
 29 529 - Isa Pulver  06/21/2019 9:21 59.2  13.11  11.09 
 30 T406 - Operation Walk Midwest  06/21/2019 10:44 59.2  15.79  18.56 
 31 442 - Joe Barr  06/21/2019 10:44 59.2  13.93  11.05 
 32 411 - Geoff Brunner  06/21/2019 11:30 59.2  12.08  11.02 
 33 T418 - The Opportunists  06/21/2019 11:58 59.2  17.16  18.42 
 34 559 - Team Martin RAAM 2019 (Martin Bergmeister)  06/21/2019 12:26 59.2  13.45  10.97 
 35 T410 - Soap-Aid  06/21/2019 17:39 59.2  18.69  17.69 
 36 618 - GREGORY ROBINSON  06/21/2019 18:09 59.2  14.38  10.7 
 37 610 - Kabir Rachure  06/21/2019 18:33 59.2  11.92  10.68 
 38 568 - Alexandra Meixner  06/21/2019 19:08 59.2  9.35  10.65 
 39 T803 - Team EndoPark  06/21/2019 21:24 59.2  17.24  17.27 
 40 604 - Chieko Ozawa  06/21/2019 21:32 59.2  10.27  10.54 
 41 T414 - Brazil Nuts  06/21/2019 22:08 59.2  20.53  17.17 
 42 T412 - Team Aspect  06/21/2019 22:22 59.2  26.12  17.14 
 43 T405 - High Rollers  06/21/2019 23:53 59.2  15.93  16.96 
 44 T202 - Integra Medical - BAA Racing  06/22/2019 0:04 59.2  14.44  16.91 
 45 T415 - TEAM FIRE VELO 935  06/22/2019 0:37 59.2  28.42  16.89 
 46 T413 - TEAM BRASIL - SKIPPER  06/22/2019 3:36 59.2  16.68  16.57 
 47 T206 - Project Linear Acceleration  06/22/2019 3:52 59.2  14.5  16.51 
 48 T204 - Lucan CRC  06/22/2019 4:01 59.2  14.92  16.49 
 49 T402 - EA/WFP RAAM Team  06/22/2019 4:55 59.2  23.68  16.41 
 50 399 - Valerio Zamboni  06/22/2019 5:36 59.2  8.13  10.23 
 51 T200 - AIR RELAX GoPro TEAM BRASIL  06/22/2019 6:19 59.2  18.5  16.24 
 52 424 - Team i RON man Veterans supporting Veterans  06/22/2019 7:59 59.2  9.2  10.13 
 53 T801 - Mind Over Matter  06/22/2019 8:16 59.2  15.79  16.1 
 54 T806 - Team SuperMarrow  06/22/2019 9:20 59.2  14.74  16 
 55 T403 - EKJ Denmark  06/22/2019 12:20 59.2  16  15.67 
 56 161 - Seana Hogan  06/22/2019 14:00 59.2  9.7  9.88 
 57 T417 - Team4RAAM 2019 powered by TGW Living Logistics  06/22/2019 14:12 59.2  8.4  15.52 
 58 T409 - Serpentine Golden Girls  06/23/2019 1:10 59.2  14.62  14.55 
 59 T207 - Team Life Time  06/23/2019 8:24 59.2  11.88  13.97 
 60 T210 - Bike Wine Team  06/23/2019 9:55 59.2  14.62  13.86